createdAt,value
2022-08-28T00:00:42.315Z,100.00
2022-08-28T00:03:12.020Z,100.00
2022-08-28T00:05:41.550Z,100.00
2022-08-28T00:08:11.026Z,100.00
2022-08-28T00:10:39.999Z,100.00
2022-08-28T00:13:15.419Z,100.00
2022-08-28T00:15:42.481Z,100.00
2022-08-28T00:18:09.374Z,100.00
2022-08-28T00:20:37.201Z,100.00
2022-08-28T00:23:06.528Z,100.00
2022-08-28T00:25:35.043Z,100.00
2022-08-28T00:28:09.109Z,100.00
2022-08-28T00:30:50.050Z,100.00
2022-08-28T00:33:25.758Z,100.00
2022-08-28T00:35:53.114Z,100.00
2022-08-28T00:38:22.355Z,100.00
2022-08-28T00:40:53.075Z,100.00
2022-08-28T00:43:44.714Z,100.00
2022-08-28T00:46:23.592Z,100.00
2022-08-28T00:48:50.756Z,100.00
2022-08-28T00:51:38.903Z,100.00
2022-08-28T00:54:08.294Z,100.00
2022-08-28T00:56:36.211Z,100.00
2022-08-28T00:59:15.557Z,100.00
2022-08-28T01:01:43.826Z,100.00
2022-08-28T01:04:17.727Z,100.00
2022-08-28T01:06:48.458Z,100.00
2022-08-28T01:09:15.695Z,100.00
2022-08-28T01:11:49.993Z,100.00
2022-08-28T01:14:20.369Z,100.00
2022-08-28T01:16:52.750Z,100.00
2022-08-28T01:19:33.813Z,100.00
2022-08-28T01:22:29.429Z,100.00
2022-08-28T01:25:00.842Z,100.00
2022-08-28T01:27:28.130Z,100.00
2022-08-28T01:29:55.350Z,100.00
2022-08-28T01:32:44.622Z,100.00
2022-08-28T01:35:16.372Z,100.00
2022-08-28T01:37:44.272Z,100.00
2022-08-28T01:40:16.039Z,100.00
2022-08-28T01:42:44.170Z,100.00
2022-08-28T01:45:20.540Z,100.00
2022-08-28T01:47:48.451Z,100.00
2022-08-28T01:50:21.414Z,100.00
2022-08-28T01:52:48.361Z,100.00
2022-08-28T01:55:15.248Z,100.00
2022-08-28T01:57:51.040Z,100.00
2022-08-28T02:00:18.679Z,100.00
2022-08-28T02:02:45.516Z,100.00
2022-08-28T02:05:12.562Z,100.00
2022-08-28T02:07:39.394Z,100.00
2022-08-28T02:10:09.150Z,100.00
2022-08-28T02:12:36.395Z,100.00
2022-08-28T02:15:07.941Z,100.00
2022-08-28T02:17:35.045Z,100.00
2022-08-28T02:20:02.062Z,100.00
2022-08-28T02:22:28.870Z,100.00
2022-08-28T02:24:55.696Z,100.00
2022-08-28T02:27:22.546Z,100.00
2022-08-28T02:29:49.389Z,100.00
2022-08-28T02:32:16.204Z,100.00
2022-08-28T02:34:43.670Z,100.00
2022-08-28T02:37:13.258Z,100.00
2022-08-28T02:39:40.567Z,100.00
2022-08-28T02:42:07.470Z,100.00
2022-08-28T02:44:34.909Z,100.00
2022-08-28T02:47:01.797Z,100.00
2022-08-28T02:49:31.251Z,100.00
2022-08-28T02:52:04.439Z,100.00
2022-08-28T02:54:31.316Z,100.00
2022-08-28T02:56:58.581Z,100.00
2022-08-28T02:59:25.593Z,100.00
2022-08-28T03:01:52.470Z,100.00
2022-08-28T03:04:19.361Z,100.00
2022-08-28T03:06:46.160Z,100.00
2022-08-28T03:09:13.106Z,100.00
2022-08-28T03:11:41.049Z,100.00
2022-08-28T03:14:08.281Z,100.00
2022-08-28T03:16:35.180Z,100.00
2022-08-28T03:19:02.044Z,100.00
2022-08-28T03:21:28.875Z,100.00
2022-08-28T03:23:55.665Z,100.00
2022-08-28T03:26:23.962Z,100.00
2022-08-28T03:28:53.555Z,100.00
2022-08-28T03:31:24.155Z,100.00
2022-08-28T03:33:52.317Z,100.00
2022-08-28T03:36:24.444Z,100.00
2022-08-28T03:38:53.890Z,100.00
2022-08-28T03:41:23.847Z,100.00
2022-08-28T03:43:51.603Z,100.00
2022-08-28T03:46:25.292Z,100.00
2022-08-28T03:48:53.218Z,100.00
2022-08-28T03:51:29.513Z,100.00
2022-08-28T03:53:58.383Z,100.00
2022-08-28T03:56:27.812Z,100.00
2022-08-28T03:58:59.123Z,100.00
2022-08-28T04:01:26.774Z,100.00
2022-08-28T04:03:53.852Z,100.00
2022-08-28T04:06:20.705Z,100.00
2022-08-28T04:08:48.273Z,100.00
2022-08-28T04:11:15.448Z,100.00
2022-08-28T04:13:42.256Z,100.00
2022-08-28T04:16:13.390Z,100.00
2022-08-28T04:18:43.086Z,100.00
2022-08-28T04:21:18.533Z,100.00
2022-08-28T04:23:47.110Z,100.00
2022-08-28T04:26:23.006Z,100.00
2022-08-28T04:28:50.359Z,100.00
2022-08-28T04:31:19.762Z,100.00
2022-08-28T04:34:04.918Z,100.00
2022-08-28T04:36:33.622Z,100.00
2022-08-28T04:39:01.138Z,100.00
2022-08-28T04:41:28.762Z,100.00
2022-08-28T04:43:57.610Z,100.00
2022-08-28T04:46:25.533Z,100.00
2022-08-28T04:48:53.069Z,100.00
2022-08-28T04:51:20.331Z,100.00
2022-08-28T04:53:47.411Z,100.00
2022-08-28T04:56:15.286Z,100.00
2022-08-28T04:58:44.132Z,100.00
2022-08-28T05:01:19.354Z,100.00
2022-08-28T05:03:48.188Z,100.00
2022-08-28T05:06:16.652Z,100.00
2022-08-28T05:08:44.011Z,100.00
2022-08-28T05:11:33.277Z,100.00
2022-08-28T05:14:12.679Z,100.00
2022-08-28T05:16:47.600Z,100.00
2022-08-28T05:19:16.652Z,100.00
2022-08-28T05:21:44.022Z,100.00
2022-08-28T05:24:11.434Z,100.00
2022-08-28T05:26:38.916Z,100.00
2022-08-28T05:29:09.870Z,100.00
2022-08-28T05:31:39.015Z,100.00
2022-08-28T05:34:06.975Z,100.00
2022-08-28T05:36:36.983Z,100.00
2022-08-28T05:39:10.247Z,100.00
2022-08-28T05:41:40.493Z,100.00
2022-08-28T05:44:10.150Z,100.00
2022-08-28T05:46:40.470Z,100.00
2022-08-28T05:49:09.973Z,100.00
2022-08-28T05:51:40.314Z,100.00
2022-08-28T05:54:07.496Z,100.00
2022-08-28T05:56:39.384Z,100.00
2022-08-28T05:59:07.260Z,100.00
2022-08-28T06:01:39.680Z,100.00
2022-08-28T06:04:18.043Z,100.00
2022-08-28T06:06:45.572Z,100.00
2022-08-28T06:09:16.502Z,100.00
2022-08-28T06:11:46.004Z,100.00
2022-08-28T06:14:18.059Z,100.00
2022-08-28T06:16:49.172Z,100.00
2022-08-28T06:19:17.302Z,100.00
2022-08-28T06:21:46.743Z,100.00
2022-08-28T06:24:14.148Z,100.00
2022-08-28T06:26:42.195Z,100.00
2022-08-28T06:29:12.755Z,100.00
2022-08-28T06:31:40.308Z,100.00
2022-08-28T06:34:08.945Z,100.00
2022-08-28T06:36:41.628Z,100.00
2022-08-28T06:39:10.523Z,100.00
2022-08-28T06:41:42.735Z,100.00
2022-08-28T06:44:19.634Z,100.00
2022-08-28T06:46:49.412Z,100.00
2022-08-28T06:49:16.706Z,100.00
2022-08-28T06:51:43.756Z,100.00
2022-08-28T06:54:10.694Z,100.00
2022-08-28T06:56:38.378Z,100.00
2022-08-28T06:59:05.561Z,100.00
2022-08-28T07:01:35.960Z,100.00
2022-08-28T07:04:08.753Z,100.00
2022-08-28T07:06:40.857Z,100.00
2022-08-28T07:09:11.271Z,100.00
2022-08-28T07:11:38.877Z,100.00
2022-08-28T07:14:06.738Z,100.00
2022-08-28T07:16:38.380Z,100.00
2022-08-28T07:19:11.935Z,100.00
2022-08-28T07:21:41.958Z,100.00
2022-08-28T07:24:11.990Z,100.00
2022-08-28T07:26:41.685Z,100.00
2022-08-28T07:29:10.874Z,100.00
2022-08-28T07:31:42.512Z,100.00
2022-08-28T07:34:14.133Z,100.00
2022-08-28T07:36:41.948Z,100.00
2022-08-28T07:39:11.139Z,100.00
2022-08-28T07:41:42.280Z,100.00
2022-08-28T07:44:30.461Z,100.00
2022-08-28T07:47:03.935Z,100.00
2022-08-28T07:49:33.548Z,100.00
2022-08-28T07:52:00.943Z,100.00
2022-08-28T07:54:27.784Z,100.00
2022-08-28T07:56:54.672Z,100.00
2022-08-28T07:59:21.926Z,100.00
2022-08-28T08:01:51.449Z,100.00
2022-08-28T08:04:20.059Z,100.00
2022-08-28T08:06:46.977Z,100.00
2022-08-28T08:09:18.057Z,100.00
2022-08-28T08:11:46.700Z,100.00
2022-08-28T08:14:14.680Z,100.00
2022-08-28T08:16:45.228Z,100.00
2022-08-28T08:19:14.082Z,100.00
2022-08-28T08:21:45.010Z,100.00
2022-08-28T08:24:19.674Z,100.00
2022-08-28T08:26:59.675Z,100.00
2022-08-28T08:29:31.211Z,100.00
2022-08-28T08:32:09.136Z,100.00
2022-08-28T08:34:41.324Z,100.00
2022-08-28T08:37:09.067Z,100.00
2022-08-28T08:39:37.411Z,100.00
2022-08-28T08:42:10.786Z,100.00
2022-08-28T08:44:43.079Z,100.00
2022-08-28T08:47:22.355Z,100.00
2022-08-28T08:50:08.849Z,100.00
2022-08-28T08:53:04.294Z,100.00
2022-08-28T08:55:52.469Z,100.00
2022-08-28T08:58:40.937Z,100.00
2022-08-28T09:01:31.458Z,100.00
2022-08-28T09:04:04.716Z,100.00
2022-08-28T09:07:18.231Z,100.00
2022-08-28T09:09:53.177Z,100.00
2022-08-28T09:12:26.035Z,100.00
2022-08-28T09:15:08.807Z,100.00
2022-08-28T09:17:46.285Z,100.00
2022-08-28T09:20:21.501Z,100.00
2022-08-28T09:22:59.611Z,100.00
2022-08-28T09:25:44.689Z,100.00
2022-08-28T09:28:21.717Z,100.00
2022-08-28T09:30:59.766Z,100.00
2022-08-28T09:33:53.349Z,100.00
2022-08-28T09:36:35.053Z,100.00
2022-08-28T09:39:30.322Z,100.00
2022-08-28T09:42:41.270Z,100.00
2022-08-28T09:45:21.370Z,100.00
2022-08-28T09:47:58.721Z,100.00
2022-08-28T09:50:28.283Z,100.00
2022-08-28T09:53:11.486Z,100.00
2022-08-28T09:56:11.026Z,100.00
2022-08-28T09:58:47.039Z,100.00
2022-08-28T10:01:38.471Z,100.00
2022-08-28T10:04:42.509Z,100.00
2022-08-28T10:07:16.128Z,100.00
2022-08-28T10:09:58.742Z,100.00
2022-08-28T10:13:11.952Z,100.00
2022-08-28T10:15:43.453Z,100.00
2022-08-28T10:18:28.160Z,100.00
2022-08-28T10:21:13.722Z,100.00
2022-08-28T10:24:05.903Z,100.00
2022-08-28T10:26:55.597Z,100.00
2022-08-28T10:30:03.035Z,100.00
2022-08-28T10:32:49.303Z,100.00
2022-08-28T10:35:28.049Z,100.00
2022-08-28T10:38:25.381Z,100.00
2022-08-28T10:41:05.825Z,100.00
2022-08-28T10:43:40.895Z,100.00
2022-08-28T10:46:22.160Z,100.00
2022-08-28T10:49:10.627Z,100.00
2022-08-28T10:51:46.643Z,100.00
2022-08-28T10:54:33.344Z,100.00
2022-08-28T10:57:30.978Z,100.00
2022-08-28T11:00:00.860Z,100.00
2022-08-28T11:02:29.679Z,100.00
2022-08-28T11:04:58.662Z,100.00
2022-08-28T11:07:50.641Z,100.00
2022-08-28T11:10:32.471Z,100.00
2022-08-28T11:13:00.234Z,100.00
2022-08-28T11:15:37.221Z,100.00
2022-08-28T11:18:16.174Z,100.00
2022-08-28T11:21:21.656Z,100.00
2022-08-28T11:24:04.206Z,100.00
2022-08-28T11:26:47.753Z,100.00
2022-08-28T11:29:57.450Z,100.00
2022-08-28T11:32:57.971Z,100.00
2022-08-28T11:35:30.814Z,100.00
2022-08-28T11:37:58.570Z,100.00
2022-08-28T11:40:28.329Z,100.00
2022-08-28T11:43:16.811Z,100.00
2022-08-28T11:45:47.438Z,100.00
2022-08-28T11:48:43.177Z,100.00
2022-08-28T11:51:52.807Z,100.00
2022-08-28T11:54:51.704Z,100.00
2022-08-28T11:57:46.227Z,100.00
2022-08-28T12:01:08.582Z,100.00
2022-08-28T12:04:20.349Z,100.00
2022-08-28T12:07:12.213Z,95.64
2022-08-28T12:09:47.608Z,94.28
2022-08-28T12:12:23.408Z,92.40
2022-08-28T12:14:56.322Z,91.41
2022-08-28T12:17:22.987Z,92.24
2022-08-28T12:20:19.256Z,91.82
2022-08-28T12:22:56.910Z,98.99
2022-08-28T12:25:36.749Z,96.92
2022-08-28T12:28:22.858Z,100.00
2022-08-28T12:31:05.805Z,99.19
2022-08-28T12:33:52.719Z,96.84
2022-08-28T12:36:26.659Z,96.26
2022-08-28T12:38:56.286Z,100.00
2022-08-28T12:41:27.029Z,98.28
2022-08-28T12:43:58.493Z,94.93
2022-08-28T12:46:32.911Z,91.30
2022-08-28T12:49:25.624Z,94.21
2022-08-28T12:52:27.185Z,92.01
2022-08-28T12:54:58.779Z,90.51
2022-08-28T12:57:25.786Z,92.24
2022-08-28T12:59:55.487Z,94.68
2022-08-28T13:02:28.061Z,93.20
2022-08-28T13:05:00.931Z,91.03
2022-08-28T13:07:50.210Z,91.37
2022-08-28T13:10:56.202Z,94.00
2022-08-28T13:13:46.592Z,90.93
2022-08-28T13:16:35.902Z,94.20
2022-08-28T13:19:06.594Z,90.72
2022-08-28T13:21:37.822Z,89.97
2022-08-28T13:24:28.002Z,90.04
2022-08-28T13:27:07.858Z,92.66
2022-08-28T13:29:36.043Z,95.91
2022-08-28T13:32:11.282Z,92.16
2022-08-28T13:34:48.178Z,90.01
2022-08-28T13:37:49.923Z,88.98
2022-08-28T13:40:56.920Z,90.35
2022-08-28T13:43:11.694Z,92.82
2022-08-28T13:45:44.624Z,87.87
2022-08-28T13:48:22.111Z,87.53
2022-08-28T13:50:57.111Z,86.25
2022-08-28T13:53:23.928Z,84.07
2022-08-28T13:55:51.470Z,80.52
2022-08-28T13:58:19.047Z,79.84
2022-08-28T14:00:49.202Z,81.16
2022-08-28T14:03:35.127Z,83.61
2022-08-28T14:06:16.915Z,85.29
2022-08-28T14:08:45.581Z,82.68
2022-08-28T14:11:15.047Z,83.13
2022-08-28T14:13:46.957Z,84.65
2022-08-28T14:16:23.169Z,86.12
2022-08-28T14:18:52.577Z,85.94
2022-08-28T14:21:19.637Z,87.01
2022-08-28T14:23:46.605Z,87.87
2022-08-28T14:26:13.518Z,87.58
2022-08-28T14:28:40.438Z,88.23
2022-08-28T14:31:11.055Z,87.43
2022-08-28T14:33:42.342Z,86.28
2022-08-28T14:36:21.062Z,84.17
2022-08-28T14:38:53.670Z,85.41
2022-08-28T14:41:24.626Z,85.20
2022-08-28T14:43:53.305Z,84.81
2022-08-28T14:46:30.737Z,83.96
2022-08-28T14:49:18.349Z,81.16
2022-08-28T14:51:46.710Z,80.98
2022-08-28T14:54:19.033Z,80.21
2022-08-28T14:56:48.103Z,80.35
2022-08-28T14:59:27.397Z,79.52
2022-08-28T15:01:58.390Z,80.30
2022-08-28T15:04:26.990Z,79.93
2022-08-28T15:06:59.367Z,79.79
2022-08-28T15:09:26.226Z,79.37
2022-08-28T15:11:53.570Z,80.09
2022-08-28T15:14:20.810Z,79.58
2022-08-28T15:16:49.362Z,79.67
2022-08-28T15:19:18.027Z,82.34
2022-08-28T15:21:51.522Z,79.61
2022-08-28T15:24:24.677Z,80.84
2022-08-28T15:26:52.000Z,80.94
2022-08-28T15:29:18.860Z,80.93
2022-08-28T15:31:48.946Z,80.36
2022-08-28T15:34:21.354Z,80.99
2022-08-28T15:36:55.158Z,80.85
2022-08-28T15:39:45.773Z,81.71
2022-08-28T15:42:14.338Z,81.64
2022-08-28T15:44:41.951Z,81.52
2022-08-28T15:47:09.767Z,80.62
2022-08-28T15:49:38.903Z,81.70
2022-08-28T15:52:13.712Z,84.26
2022-08-28T15:54:41.617Z,83.30
2022-08-28T15:57:08.510Z,84.01
2022-08-28T15:59:38.014Z,84.05
2022-08-28T16:02:16.466Z,84.02
2022-08-28T16:04:43.399Z,83.51
2022-08-28T16:07:10.653Z,83.10
2022-08-28T16:09:37.520Z,82.44
2022-08-28T16:12:04.891Z,81.58
2022-08-28T16:14:32.920Z,81.93
2022-08-28T16:16:59.988Z,80.83
2022-08-28T16:19:33.035Z,77.58
2022-08-28T16:22:00.249Z,78.88
2022-08-28T16:24:27.101Z,78.59
2022-08-28T16:26:54.107Z,78.73
2022-08-28T16:29:21.033Z,78.96
2022-08-28T16:31:48.940Z,78.43
2022-08-28T16:34:15.897Z,78.18
2022-08-28T16:36:48.032Z,77.60
2022-08-28T16:39:15.076Z,77.20
2022-08-28T16:41:43.127Z,76.86
2022-08-28T16:44:09.997Z,77.36
2022-08-28T16:46:36.929Z,76.13
2022-08-28T16:49:04.163Z,76.24
2022-08-28T16:51:31.565Z,76.01
2022-08-28T16:53:58.601Z,76.65
2022-08-28T16:56:26.489Z,72.95
2022-08-28T16:58:53.744Z,74.54
2022-08-28T17:01:24.162Z,74.84
2022-08-28T17:03:53.368Z,75.55
2022-08-28T17:06:28.567Z,74.04
2022-08-28T17:08:57.102Z,75.54
2022-08-28T17:11:26.470Z,76.11
2022-08-28T17:13:54.187Z,76.55
2022-08-28T17:16:23.543Z,77.05
2022-08-28T17:18:52.312Z,77.80
2022-08-28T17:21:41.136Z,78.61
2022-08-28T17:24:12.468Z,78.45
2022-08-28T17:26:40.672Z,78.96
2022-08-28T17:29:08.011Z,80.41
2022-08-28T17:31:35.017Z,80.25
2022-08-28T17:34:01.957Z,81.24
2022-08-28T17:36:33.070Z,81.71
2022-08-28T17:39:05.063Z,82.15
2022-08-28T17:41:33.352Z,82.94
2022-08-28T17:44:01.355Z,83.12
2022-08-28T17:46:28.515Z,83.02
2022-08-28T17:48:56.304Z,84.15
2022-08-28T17:51:33.173Z,84.84
2022-08-28T17:54:13.546Z,86.20
2022-08-28T17:56:41.567Z,86.87
2022-08-28T17:59:08.544Z,87.18
2022-08-28T18:01:35.994Z,89.02
2022-08-28T18:04:03.233Z,86.33
2022-08-28T18:06:30.046Z,86.35
2022-08-28T18:08:56.936Z,87.27
2022-08-28T18:11:23.881Z,85.85
2022-08-28T18:13:50.953Z,88.83
2022-08-28T18:16:18.221Z,89.18
2022-08-28T18:18:45.160Z,89.83
2022-08-28T18:21:13.962Z,92.82
2022-08-28T18:23:40.932Z,92.46
2022-08-28T18:26:08.666Z,93.34
2022-08-28T18:28:36.111Z,94.51
2022-08-28T18:31:05.558Z,95.24
2022-08-28T18:33:32.666Z,99.07
2022-08-28T18:35:59.561Z,100.00
2022-08-28T18:38:34.871Z,100.00
2022-08-28T18:41:04.475Z,100.00
2022-08-28T18:43:32.314Z,100.00
2022-08-28T18:46:01.488Z,100.00
2022-08-28T18:48:28.972Z,100.00
2022-08-28T18:50:55.777Z,100.00
2022-08-28T18:53:23.669Z,100.00
2022-08-28T18:55:53.843Z,100.00
2022-08-28T18:58:22.625Z,100.00
2022-08-28T19:00:49.971Z,100.00
2022-08-28T19:03:17.380Z,100.00
2022-08-28T19:05:44.301Z,100.00
2022-08-28T19:08:11.401Z,100.00
2022-08-28T19:10:38.565Z,100.00
2022-08-28T19:13:06.797Z,100.00
2022-08-28T19:15:35.683Z,100.00
2022-08-28T19:18:04.088Z,100.00
2022-08-28T19:20:31.181Z,100.00
2022-08-28T19:22:58.764Z,100.00
2022-08-28T19:25:30.353Z,100.00
2022-08-28T19:28:00.112Z,100.00
2022-08-28T19:30:31.293Z,100.00
2022-08-28T19:32:58.214Z,100.00
2022-08-28T19:35:26.626Z,100.00
2022-08-28T19:37:54.162Z,100.00
2022-08-28T19:40:21.530Z,100.00
2022-08-28T19:42:49.767Z,100.00
2022-08-28T19:45:18.014Z,100.00
2022-08-28T19:47:45.692Z,100.00
2022-08-28T19:50:14.471Z,100.00
2022-08-28T19:52:44.613Z,100.00
2022-08-28T19:55:22.887Z,100.00
2022-08-28T19:57:49.844Z,100.00
2022-08-28T20:00:25.260Z,100.00
2022-08-28T20:02:52.989Z,100.00
2022-08-28T20:05:20.441Z,100.00
2022-08-28T20:07:47.698Z,100.00
2022-08-28T20:10:15.905Z,100.00
2022-08-28T20:12:48.622Z,100.00
2022-08-28T20:15:17.676Z,100.00
2022-08-28T20:17:49.491Z,100.00
2022-08-28T20:20:24.567Z,100.00
2022-08-28T20:22:53.908Z,100.00
2022-08-28T20:25:21.646Z,100.00
2022-08-28T20:27:48.489Z,100.00
2022-08-28T20:30:15.721Z,100.00
2022-08-28T20:32:42.652Z,100.00
2022-08-28T20:35:12.693Z,100.00
2022-08-28T20:37:45.424Z,100.00
2022-08-28T20:40:19.031Z,100.00
2022-08-28T20:42:46.504Z,100.00
2022-08-28T20:45:15.272Z,100.00
2022-08-28T20:47:42.447Z,100.00
2022-08-28T20:50:10.048Z,100.00
2022-08-28T20:52:37.059Z,100.00
2022-08-28T20:55:07.522Z,100.00
2022-08-28T20:57:35.053Z,100.00
2022-08-28T21:00:05.437Z,100.00
2022-08-28T21:02:33.168Z,100.00
2022-08-28T21:05:00.487Z,100.00
2022-08-28T21:07:27.766Z,100.00
2022-08-28T21:10:05.055Z,100.00
2022-08-28T21:12:34.539Z,100.00
2022-08-28T21:15:01.524Z,100.00
2022-08-28T21:17:30.350Z,100.00
2022-08-28T21:20:00.754Z,100.00
2022-08-28T21:22:29.520Z,100.00
2022-08-28T21:24:56.388Z,100.00
2022-08-28T21:27:23.294Z,100.00
2022-08-28T21:29:50.368Z,100.00
2022-08-28T21:32:17.216Z,100.00
2022-08-28T21:34:44.128Z,100.00
2022-08-28T21:37:10.995Z,100.00
2022-08-28T21:39:37.934Z,100.00
2022-08-28T21:42:05.348Z,100.00
2022-08-28T21:44:32.237Z,100.00
2022-08-28T21:46:59.129Z,100.00
2022-08-28T21:49:26.025Z,100.00
2022-08-28T21:51:52.987Z,100.00
2022-08-28T21:54:19.878Z,100.00
2022-08-28T21:56:46.882Z,100.00
2022-08-28T21:59:17.409Z,100.00
2022-08-28T22:01:44.437Z,100.00
2022-08-28T22:04:11.749Z,100.00
2022-08-28T22:06:40.417Z,100.00
2022-08-28T22:09:08.838Z,100.00
2022-08-28T22:11:35.819Z,100.00
2022-08-28T22:14:02.733Z,100.00
2022-08-28T22:16:29.718Z,100.00
2022-08-28T22:18:56.609Z,100.00
2022-08-28T22:21:46.099Z,100.00
2022-08-28T22:24:13.551Z,100.00
2022-08-28T22:26:42.404Z,100.00
2022-08-28T22:29:10.682Z,100.00
2022-08-28T22:31:41.378Z,100.00
2022-08-28T22:34:13.512Z,100.00
2022-08-28T22:36:40.361Z,100.00
2022-08-28T22:39:07.342Z,100.00
2022-08-28T22:41:37.459Z,100.00
2022-08-28T22:44:04.919Z,100.00
2022-08-28T22:46:31.837Z,100.00
2022-08-28T22:48:59.253Z,100.00
2022-08-28T22:51:26.143Z,100.00
2022-08-28T22:53:53.007Z,100.00
2022-08-28T22:56:20.294Z,100.00
2022-08-28T22:58:47.184Z,100.00
2022-08-28T23:01:22.332Z,100.00
2022-08-28T23:03:49.712Z,100.00
2022-08-28T23:06:16.873Z,100.00
2022-08-28T23:08:43.964Z,100.00
2022-08-28T23:11:11.407Z,100.00
2022-08-28T23:13:38.940Z,100.00
2022-08-28T23:16:07.174Z,100.00
2022-08-28T23:18:51.885Z,100.00
2022-08-28T23:21:26.376Z,100.00
2022-08-28T23:23:55.066Z,100.00
2022-08-28T23:26:28.056Z,100.00
2022-08-28T23:28:54.995Z,100.00
2022-08-28T23:31:21.895Z,100.00
2022-08-28T23:33:48.809Z,100.00
2022-08-28T23:36:15.645Z,100.00
2022-08-28T23:38:44.288Z,100.00
2022-08-28T23:41:11.674Z,100.00
2022-08-28T23:43:40.212Z,100.00
2022-08-28T23:46:07.285Z,100.00
2022-08-28T23:48:35.321Z,100.00
2022-08-28T23:51:02.595Z,100.00
2022-08-28T23:53:29.562Z,100.00
2022-08-28T23:55:57.550Z,100.00
2022-08-28T23:58:31.824Z,100.00
